sensor_id;sensor_type;location;lat;lon;timestamp;P1;durP1;ratioP1;P2;durP2;ratioP2
64401;SDS011;50724;42.376;23.768;2023-02-12T00:00:59;8.23;;;2.80;;
64401;SDS011;50724;42.376;23.768;2023-02-12T00:04:00;9.93;;;3.53;;
64401;SDS011;50724;42.376;23.768;2023-02-12T00:07:00;8.52;;;3.00;;
64401;SDS011;50724;42.376;23.768;2023-02-12T00:10:01;6.05;;;2.80;;
64401;SDS011;50724;42.376;23.768;2023-02-12T00:13:01;7.90;;;3.10;;
64401;SDS011;50724;42.376;23.768;2023-02-12T00:16:06;8.32;;;3.00;;
64401;SDS011;50724;42.376;23.768;2023-02-12T00:19:08;6.32;;;2.45;;
64401;SDS011;50724;42.376;23.768;2023-02-12T00:22:09;8.32;;;2.60;;
64401;SDS011;50724;42.376;23.768;2023-02-12T00:25:09;11.35;;;3.83;;
64401;SDS011;50724;42.376;23.768;2023-02-12T00:28:10;6.85;;;2.47;;
64401;SDS011;50724;42.376;23.768;2023-02-12T00:31:11;6.23;;;3.13;;
64401;SDS011;50724;42.376;23.768;2023-02-12T00:34:14;8.63;;;2.92;;
64401;SDS011;50724;42.376;23.768;2023-02-12T00:37:14;7.13;;;2.90;;
64401;SDS011;50724;42.376;23.768;2023-02-12T00:40:14;9.90;;;3.45;;
64401;SDS011;50724;42.376;23.768;2023-02-12T00:43:15;6.78;;;3.53;;
64401;SDS011;50724;42.376;23.768;2023-02-12T00:46:15;8.83;;;2.87;;
64401;SDS011;50724;42.376;23.768;2023-02-12T00:49:16;7.07;;;2.78;;
64401;SDS011;50724;42.376;23.768;2023-02-12T00:52:18;7.88;;;2.78;;
64401;SDS011;50724;42.376;23.768;2023-02-12T00:55:26;6.53;;;2.70;;
64401;SDS011;50724;42.376;23.768;2023-02-12T00:58:27;8.87;;;3.70;;
64401;SDS011;50724;42.376;23.768;2023-02-12T01:01:27;8.55;;;3.03;;
64401;SDS011;50724;42.376;23.768;2023-02-12T01:04:28;6.80;;;2.97;;
64401;SDS011;50724;42.376;23.768;2023-02-12T01:07:28;6.55;;;2.58;;
64401;SDS011;50724;42.376;23.768;2023-02-12T01:10:28;8.30;;;2.95;;
64401;SDS011;50724;42.376;23.768;2023-02-12T01:13:30;10.70;;;3.08;;
64401;SDS011;50724;42.376;23.768;2023-02-12T01:16:31;7.90;;;2.60;;
64401;SDS011;50724;42.376;23.768;2023-02-12T01:19:32;5.93;;;2.30;;
64401;SDS011;50724;42.376;23.768;2023-02-12T01:22:33;6.90;;;2.85;;
64401;SDS011;50724;42.376;23.768;2023-02-12T01:25:36;8.32;;;2.85;;
64401;SDS011;50724;42.376;23.768;2023-02-12T01:28:41;5.68;;;2.50;;
64401;SDS011;50724;42.376;23.768;2023-02-12T01:31:43;5.57;;;2.60;;
64401;SDS011;50724;42.376;23.768;2023-02-12T01:34:43;7.18;;;3.50;;
64401;SDS011;50724;42.376;23.768;2023-02-12T01:37:44;10.73;;;2.20;;
64401;SDS011;50724;42.376;23.768;2023-02-12T01:40:44;7.63;;;3.00;;
64401;SDS011;50724;42.376;23.768;2023-02-12T01:43:45;4.90;;;2.20;;
64401;SDS011;50724;42.376;23.768;2023-02-12T01:46:46;9.15;;;3.22;;
64401;SDS011;50724;42.376;23.768;2023-02-12T01:52:57;6.03;;;2.37;;
64401;SDS011;50724;42.376;23.768;2023-02-12T01:59:00;3.53;;;1.83;;
64401;SDS011;50724;42.376;23.768;2023-02-12T02:02:01;8.32;;;2.67;;
64401;SDS011;50724;42.376;23.768;2023-02-12T02:05:03;6.80;;;2.63;;
64401;SDS011;50724;42.376;23.768;2023-02-12T02:08:04;8.73;;;2.05;;
64401;SDS011;50724;42.376;23.768;2023-02-12T02:11:05;9.13;;;2.85;;
64401;SDS011;50724;42.376;23.768;2023-02-12T02:14:25;8.95;;;3.17;;
64401;SDS011;50724;42.376;23.768;2023-02-12T02:34:39;4.85;;;2.17;;
64401;SDS011;50724;42.376;23.768;2023-02-12T02:38:36;7.72;;;2.85;;
64401;SDS011;50724;42.376;23.768;2023-02-12T02:41:18;7.45;;;2.65;;
64401;SDS011;50724;42.376;23.768;2023-02-12T02:48:35;8.85;;;3.92;;
64401;SDS011;50724;42.376;23.768;2023-02-12T02:51:41;5.93;;;2.55;;
64401;SDS011;50724;42.376;23.768;2023-02-12T02:54:48;6.00;;;2.97;;
64401;SDS011;50724;42.376;23.768;2023-02-12T02:57:54;6.53;;;3.13;;
64401;SDS011;50724;42.376;23.768;2023-02-12T03:01:03;6.95;;;3.13;;
64401;SDS011;50724;42.376;23.768;2023-02-12T03:04:11;8.98;;;3.38;;
64401;SDS011;50724;42.376;23.768;2023-02-12T03:07:26;6.55;;;3.40;;
64401;SDS011;50724;42.376;23.768;2023-02-12T03:10:32;10.43;;;3.42;;
64401;SDS011;50724;42.376;23.768;2023-02-12T03:13:38;7.88;;;3.22;;
64401;SDS011;50724;42.376;23.768;2023-02-12T03:16:56;8.23;;;3.60;;
64401;SDS011;50724;42.376;23.768;2023-02-12T03:20:05;7.95;;;3.38;;
64401;SDS011;50724;42.376;23.768;2023-02-12T03:23:12;7.80;;;4.25;;
64401;SDS011;50724;42.376;23.768;2023-02-12T03:26:23;10.18;;;3.97;;
64401;SDS011;50724;42.376;23.768;2023-02-12T03:29:30;9.07;;;3.50;;
64401;SDS011;50724;42.376;23.768;2023-02-12T03:35:57;9.40;;;3.63;;
64401;SDS011;50724;42.376;23.768;2023-02-12T03:39:13;9.57;;;4.30;;
64401;SDS011;50724;42.376;23.768;2023-02-12T03:48:53;7.33;;;2.83;;
64401;SDS011;50724;42.376;23.768;2023-02-12T03:52:04;10.23;;;3.30;;
64401;SDS011;50724;42.376;23.768;2023-02-12T03:55:05;6.60;;;3.80;;
64401;SDS011;50724;42.376;23.768;2023-02-12T03:58:07;8.35;;;3.50;;
64401;SDS011;50724;42.376;23.768;2023-02-12T04:01:12;6.95;;;2.88;;
64401;SDS011;50724;42.376;23.768;2023-02-12T04:04:13;9.80;;;4.85;;
64401;SDS011;50724;42.376;23.768;2023-02-12T04:07:14;12.93;;;4.05;;
64401;SDS011;50724;42.376;23.768;2023-02-12T04:10:16;7.13;;;3.60;;
64401;SDS011;50724;42.376;23.768;2023-02-12T04:13:21;10.55;;;3.97;;
64401;SDS011;50724;42.376;23.768;2023-02-12T04:16:28;10.73;;;3.80;;
64401;SDS011;50724;42.376;23.768;2023-02-12T04:26:33;8.98;;;3.83;;
64401;SDS011;50724;42.376;23.768;2023-02-12T04:32:50;9.95;;;4.40;;
64401;SDS011;50724;42.376;23.768;2023-02-12T04:39:24;10.38;;;4.20;;
64401;SDS011;50724;42.376;23.768;2023-02-12T04:42:43;9.45;;;3.55;;
64401;SDS011;50724;42.376;23.768;2023-02-12T04:45:45;10.93;;;4.25;;
64401;SDS011;50724;42.376;23.768;2023-02-12T04:48:49;9.52;;;4.15;;
64401;SDS011;50724;42.376;23.768;2023-02-12T04:51:53;9.80;;;4.25;;
64401;SDS011;50724;42.376;23.768;2023-02-12T04:54:53;12.13;;;4.22;;
64401;SDS011;50724;42.376;23.768;2023-02-12T04:57:54;13.70;;;6.13;;
64401;SDS011;50724;42.376;23.768;2023-02-12T05:00:57;9.90;;;3.70;;
64401;SDS011;50724;42.376;23.768;2023-02-12T05:03:58;9.05;;;3.13;;
64401;SDS011;50724;42.376;23.768;2023-02-12T05:06:58;9.20;;;3.70;;
64401;SDS011;50724;42.376;23.768;2023-02-12T05:09:59;10.03;;;4.83;;
64401;SDS011;50724;42.376;23.768;2023-02-12T05:12:59;7.97;;;3.53;;
64401;SDS011;50724;42.376;23.768;2023-02-12T05:16:02;10.38;;;4.22;;
64401;SDS011;50724;42.376;23.768;2023-02-12T05:19:04;13.90;;;4.32;;
64401;SDS011;50724;42.376;23.768;2023-02-12T05:22:04;9.57;;;4.07;;
64401;SDS011;50724;42.376;23.768;2023-02-12T05:25:05;15.60;;;5.57;;
64401;SDS011;50724;42.376;23.768;2023-02-12T05:28:05;12.43;;;5.07;;
64401;SDS011;50724;42.376;23.768;2023-02-12T05:31:06;13.60;;;4.68;;
64401;SDS011;50724;42.376;23.768;2023-02-12T05:34:09;11.43;;;4.32;;
64401;SDS011;50724;42.376;23.768;2023-02-12T05:37:10;15.57;;;4.13;;
64401;SDS011;50724;42.376;23.768;2023-02-12T05:40:19;9.50;;;4.78;;
64401;SDS011;50724;42.376;23.768;2023-02-12T05:43:19;14.20;;;4.85;;
64401;SDS011;50724;42.376;23.768;2023-02-12T05:46:20;10.73;;;3.60;;
64401;SDS011;50724;42.376;23.768;2023-02-12T05:49:21;11.23;;;4.72;;
64401;SDS011;50724;42.376;23.768;2023-02-12T05:52:30;10.98;;;4.60;;
64401;SDS011;50724;42.376;23.768;2023-02-12T05:55:30;11.25;;;4.53;;
64401;SDS011;50724;42.376;23.768;2023-02-12T05:58:31;12.60;;;4.53;;
64401;SDS011;50724;42.376;23.768;2023-02-12T06:01:32;12.27;;;4.77;;
64401;SDS011;50724;42.376;23.768;2023-02-12T06:04:40;12.95;;;4.95;;
64401;SDS011;50724;42.376;23.768;2023-02-12T06:07:41;15.10;;;5.65;;
64401;SDS011;50724;42.376;23.768;2023-02-12T06:10:41;14.57;;;5.90;;
64401;SDS011;50724;42.376;23.768;2023-02-12T06:13:42;11.93;;;5.00;;
64401;SDS011;50724;42.376;23.768;2023-02-12T06:16:43;14.70;;;4.95;;
64401;SDS011;50724;42.376;23.768;2023-02-12T06:19:45;13.32;;;4.72;;
64401;SDS011;50724;42.376;23.768;2023-02-12T06:22:46;14.07;;;4.88;;
64401;SDS011;50724;42.376;23.768;2023-02-12T06:25:47;10.90;;;4.07;;
64401;SDS011;50724;42.376;23.768;2023-02-12T06:28:48;16.30;;;6.45;;
64401;SDS011;50724;42.376;23.768;2023-02-12T06:31:49;16.63;;;6.40;;
64401;SDS011;50724;42.376;23.768;2023-02-12T06:34:58;14.07;;;5.47;;
64401;SDS011;50724;42.376;23.768;2023-02-12T06:37:58;10.18;;;4.60;;
64401;SDS011;50724;42.376;23.768;2023-02-12T06:41:00;15.45;;;6.07;;
64401;SDS011;50724;42.376;23.768;2023-02-12T06:44:02;16.33;;;4.93;;
64401;SDS011;50724;42.376;23.768;2023-02-12T06:47:03;15.77;;;6.13;;
64401;SDS011;50724;42.376;23.768;2023-02-12T06:50:03;13.77;;;5.55;;
64401;SDS011;50724;42.376;23.768;2023-02-12T06:53:04;12.57;;;5.60;;
64401;SDS011;50724;42.376;23.768;2023-02-12T06:56:06;12.23;;;5.77;;
64401;SDS011;50724;42.376;23.768;2023-02-12T06:59:12;12.00;;;4.78;;
64401;SDS011;50724;42.376;23.768;2023-02-12T07:02:14;9.60;;;4.55;;
64401;SDS011;50724;42.376;23.768;2023-02-12T07:05:14;11.65;;;5.68;;
64401;SDS011;50724;42.376;23.768;2023-02-12T07:08:15;10.77;;;4.90;;
64401;SDS011;50724;42.376;23.768;2023-02-12T07:11:15;10.80;;;4.60;;
64401;SDS011;50724;42.376;23.768;2023-02-12T07:14:16;12.82;;;5.40;;
64401;SDS011;50724;42.376;23.768;2023-02-12T07:17:16;12.93;;;4.88;;
64401;SDS011;50724;42.376;23.768;2023-02-12T07:20:17;14.10;;;5.20;;
64401;SDS011;50724;42.376;23.768;2023-02-12T07:23:17;8.48;;;4.00;;
64401;SDS011;50724;42.376;23.768;2023-02-12T07:26:19;11.50;;;4.57;;
64401;SDS011;50724;42.376;23.768;2023-02-12T07:29:20;12.63;;;3.90;;
64401;SDS011;50724;42.376;23.768;2023-02-12T07:32:20;8.77;;;3.83;;
64401;SDS011;50724;42.376;23.768;2023-02-12T07:35:21;12.02;;;4.60;;
64401;SDS011;50724;42.376;23.768;2023-02-12T07:38:21;8.18;;;4.30;;
64401;SDS011;50724;42.376;23.768;2023-02-12T07:41:22;9.37;;;4.53;;
64401;SDS011;50724;42.376;23.768;2023-02-12T07:44:27;10.30;;;3.97;;
64401;SDS011;50724;42.376;23.768;2023-02-12T07:47:28;10.73;;;4.63;;
64401;SDS011;50724;42.376;23.768;2023-02-12T07:50:28;9.63;;;3.83;;
64401;SDS011;50724;42.376;23.768;2023-02-12T07:53:30;12.23;;;4.82;;
64401;SDS011;50724;42.376;23.768;2023-02-12T07:56:32;10.70;;;4.10;;
64401;SDS011;50724;42.376;23.768;2023-02-12T07:59:35;11.77;;;4.60;;
64401;SDS011;50724;42.376;23.768;2023-02-12T08:02:35;10.55;;;4.65;;
64401;SDS011;50724;42.376;23.768;2023-02-12T08:05:36;11.13;;;5.85;;
64401;SDS011;50724;42.376;23.768;2023-02-12T08:08:36;14.57;;;5.63;;
64401;SDS011;50724;42.376;23.768;2023-02-12T08:11:38;11.95;;;4.95;;
64401;SDS011;50724;42.376;23.768;2023-02-12T08:14:40;10.73;;;4.35;;
64401;SDS011;50724;42.376;23.768;2023-02-12T08:17:40;7.77;;;3.80;;
64401;SDS011;50724;42.376;23.768;2023-02-12T08:20:42;10.18;;;5.30;;
64401;SDS011;50724;42.376;23.768;2023-02-12T08:23:43;15.53;;;5.93;;
64401;SDS011;50724;42.376;23.768;2023-02-12T08:26:44;15.98;;;5.97;;
64401;SDS011;50724;42.376;23.768;2023-02-12T08:29:44;15.18;;;5.75;;
64401;SDS011;50724;42.376;23.768;2023-02-12T08:32:47;14.98;;;6.18;;
64401;SDS011;50724;42.376;23.768;2023-02-12T08:35:48;17.55;;;6.13;;
64401;SDS011;50724;42.376;23.768;2023-02-12T08:38:49;13.00;;;5.53;;
64401;SDS011;50724;42.376;23.768;2023-02-12T08:41:49;13.40;;;5.72;;
64401;SDS011;50724;42.376;23.768;2023-02-12T08:44:54;13.55;;;6.03;;
64401;SDS011;50724;42.376;23.768;2023-02-12T08:47:54;13.60;;;4.80;;
64401;SDS011;50724;42.376;23.768;2023-02-12T08:50:55;15.05;;;5.45;;
64401;SDS011;50724;42.376;23.768;2023-02-12T08:53:56;19.30;;;7.38;;
64401;SDS011;50724;42.376;23.768;2023-02-12T08:57:00;14.60;;;6.10;;
64401;SDS011;50724;42.376;23.768;2023-02-12T09:00:02;18.10;;;5.95;;
64401;SDS011;50724;42.376;23.768;2023-02-12T09:03:03;12.68;;;5.53;;
64401;SDS011;50724;42.376;23.768;2023-02-12T09:06:04;19.77;;;7.03;;
64401;SDS011;50724;42.376;23.768;2023-02-12T09:09:05;16.10;;;6.75;;
64401;SDS011;50724;42.376;23.768;2023-02-12T09:12:06;10.75;;;5.03;;
64401;SDS011;50724;42.376;23.768;2023-02-12T09:15:07;11.80;;;4.78;;
64401;SDS011;50724;42.376;23.768;2023-02-12T09:18:08;13.18;;;6.05;;
64401;SDS011;50724;42.376;23.768;2023-02-12T09:21:13;13.27;;;5.70;;
64401;SDS011;50724;42.376;23.768;2023-02-12T09:24:15;12.05;;;5.07;;
64401;SDS011;50724;42.376;23.768;2023-02-12T09:27:16;14.03;;;6.93;;
64401;SDS011;50724;42.376;23.768;2023-02-12T09:30:16;12.80;;;5.63;;
64401;SDS011;50724;42.376;23.768;2023-02-12T09:33:17;13.77;;;4.82;;
64401;SDS011;50724;42.376;23.768;2023-02-12T09:36:17;16.20;;;5.57;;
64401;SDS011;50724;42.376;23.768;2023-02-12T09:39:18;14.73;;;6.10;;
64401;SDS011;50724;42.376;23.768;2023-02-12T09:45:44;10.52;;;5.03;;
64401;SDS011;50724;42.376;23.768;2023-02-12T09:49:11;13.10;;;5.50;;
64401;SDS011;50724;42.376;23.768;2023-02-12T09:52:26;16.10;;;7.75;;
64401;SDS011;50724;42.376;23.768;2023-02-12T09:55:29;13.18;;;5.57;;
64401;SDS011;50724;42.376;23.768;2023-02-12T09:58:48;13.30;;;6.22;;
64401;SDS011;50724;42.376;23.768;2023-02-12T10:01:50;17.05;;;7.57;;
64401;SDS011;50724;42.376;23.768;2023-02-12T10:04:50;14.85;;;6.47;;
64401;SDS011;50724;42.376;23.768;2023-02-12T10:18:36;12.18;;;5.60;;
64401;SDS011;50724;42.376;23.768;2023-02-12T10:25:02;15.70;;;5.57;;
64401;SDS011;50724;42.376;23.768;2023-02-12T10:28:11;14.13;;;5.57;;
64401;SDS011;50724;42.376;23.768;2023-02-12T10:34:24;12.45;;;6.18;;
64401;SDS011;50724;42.376;23.768;2023-02-12T10:41:26;15.13;;;6.70;;
64401;SDS011;50724;42.376;23.768;2023-02-12T10:44:29;21.15;;;7.13;;
64401;SDS011;50724;42.376;23.768;2023-02-12T10:47:30;15.35;;;6.10;;
64401;SDS011;50724;42.376;23.768;2023-02-12T10:53:43;20.83;;;7.27;;
64401;SDS011;50724;42.376;23.768;2023-02-12T10:56:45;13.73;;;6.38;;
64401;SDS011;50724;42.376;23.768;2023-02-12T10:59:46;16.88;;;7.25;;
64401;SDS011;50724;42.376;23.768;2023-02-12T11:06:14;16.15;;;6.47;;
64401;SDS011;50724;42.376;23.768;2023-02-12T11:09:28;14.60;;;5.88;;
64401;SDS011;50724;42.376;23.768;2023-02-12T11:15:47;14.73;;;7.25;;
64401;SDS011;50724;42.376;23.768;2023-02-12T11:18:48;14.07;;;6.40;;
64401;SDS011;50724;42.376;23.768;2023-02-12T11:22:08;13.88;;;6.45;;
64401;SDS011;50724;42.376;23.768;2023-02-12T11:25:14;13.88;;;6.18;;
64401;SDS011;50724;42.376;23.768;2023-02-12T11:28:17;17.52;;;7.00;;
64401;SDS011;50724;42.376;23.768;2023-02-12T11:31:23;15.98;;;7.20;;
64401;SDS011;50724;42.376;23.768;2023-02-12T11:34:24;17.42;;;7.63;;
64401;SDS011;50724;42.376;23.768;2023-02-12T11:37:24;19.08;;;8.27;;
64401;SDS011;50724;42.376;23.768;2023-02-12T11:40:28;15.75;;;6.47;;
64401;SDS011;50724;42.376;23.768;2023-02-12T11:43:33;20.58;;;8.02;;
64401;SDS011;50724;42.376;23.768;2023-02-12T11:46:51;18.25;;;7.43;;
64401;SDS011;50724;42.376;23.768;2023-02-12T11:49:56;19.55;;;8.02;;
64401;SDS011;50724;42.376;23.768;2023-02-12T11:53:03;16.63;;;7.45;;
64401;SDS011;50724;42.376;23.768;2023-02-12T11:56:11;14.25;;;6.25;;
64401;SDS011;50724;42.376;23.768;2023-02-12T12:02:31;18.83;;;7.60;;
64401;SDS011;50724;42.376;23.768;2023-02-12T12:05:40;16.60;;;8.02;;
64401;SDS011;50724;42.376;23.768;2023-02-12T12:08:56;21.63;;;8.82;;
64401;SDS011;50724;42.376;23.768;2023-02-12T12:18:57;16.35;;;6.95;;
64401;SDS011;50724;42.376;23.768;2023-02-12T12:25:41;17.45;;;9.10;;
64401;SDS011;50724;42.376;23.768;2023-02-12T12:32:10;17.23;;;7.80;;
64401;SDS011;50724;42.376;23.768;2023-02-12T12:35:17;17.05;;;7.68;;
64401;SDS011;50724;42.376;23.768;2023-02-12T13:16:11;18.75;;;8.27;;
64401;SDS011;50724;42.376;23.768;2023-02-12T13:19:42;18.73;;;7.68;;
64401;SDS011;50724;42.376;23.768;2023-02-12T13:26:04;18.52;;;7.65;;
64401;SDS011;50724;42.376;23.768;2023-02-12T13:29:43;22.20;;;9.25;;
64401;SDS011;50724;42.376;23.768;2023-02-12T13:32:59;15.27;;;7.50;;
64401;SDS011;50724;42.376;23.768;2023-02-12T13:36:13;17.77;;;8.50;;
64401;SDS011;50724;42.376;23.768;2023-02-12T13:39:15;20.50;;;8.80;;
64401;SDS011;50724;42.376;23.768;2023-02-12T13:49:38;21.85;;;8.75;;
64401;SDS011;50724;42.376;23.768;2023-02-12T13:56:03;18.23;;;8.40;;
64401;SDS011;50724;42.376;23.768;2023-02-12T14:05:33;17.65;;;7.50;;
64401;SDS011;50724;42.376;23.768;2023-02-12T14:08:35;20.13;;;9.23;;
64401;SDS011;50724;42.376;23.768;2023-02-12T14:11:45;20.70;;;9.23;;
64401;SDS011;50724;42.376;23.768;2023-02-12T14:14:53;22.38;;;9.50;;
64401;SDS011;50724;42.376;23.768;2023-02-12T14:18:05;15.50;;;7.78;;
64401;SDS011;50724;42.376;23.768;2023-02-12T14:24:39;18.67;;;8.57;;
64401;SDS011;50724;42.376;23.768;2023-02-12T14:37:17;25.33;;;10.93;;
64401;SDS011;50724;42.376;23.768;2023-02-12T14:49:53;19.17;;;7.23;;
64401;SDS011;50724;42.376;23.768;2023-02-12T14:53:06;20.00;;;9.10;;
64401;SDS011;50724;42.376;23.768;2023-02-12T14:56:20;21.70;;;9.75;;
64401;SDS011;50724;42.376;23.768;2023-02-12T14:59:25;23.83;;;10.80;;
64401;SDS011;50724;42.376;23.768;2023-02-12T15:02:31;25.33;;;10.70;;
64401;SDS011;50724;42.376;23.768;2023-02-12T15:09:01;26.90;;;11.13;;
64401;SDS011;50724;42.376;23.768;2023-02-12T15:12:11;28.52;;;11.32;;
64401;SDS011;50724;42.376;23.768;2023-02-12T15:21:40;15.60;;;7.53;;
64401;SDS011;50724;42.376;23.768;2023-02-12T15:24:41;24.45;;;12.38;;
64401;SDS011;50724;42.376;23.768;2023-02-12T15:27:46;22.45;;;10.95;;
64401;SDS011;50724;42.376;23.768;2023-02-12T15:30:47;26.75;;;9.38;;
64401;SDS011;50724;42.376;23.768;2023-02-12T15:33:49;26.50;;;11.98;;
64401;SDS011;50724;42.376;23.768;2023-02-12T15:36:53;24.70;;;11.20;;
64401;SDS011;50724;42.376;23.768;2023-02-12T15:39:58;22.23;;;10.57;;
64401;SDS011;50724;42.376;23.768;2023-02-12T15:43:04;29.80;;;14.45;;
64401;SDS011;50724;42.376;23.768;2023-02-12T15:46:11;30.60;;;12.25;;
64401;SDS011;50724;42.376;23.768;2023-02-12T15:49:17;29.23;;;12.50;;
64401;SDS011;50724;42.376;23.768;2023-02-12T15:52:19;23.20;;;10.00;;
64401;SDS011;50724;42.376;23.768;2023-02-12T15:55:26;26.38;;;11.98;;
64401;SDS011;50724;42.376;23.768;2023-02-12T15:58:36;30.20;;;13.50;;
64401;SDS011;50724;42.376;23.768;2023-02-12T16:01:39;23.05;;;10.05;;
64401;SDS011;50724;42.376;23.768;2023-02-12T16:04:56;34.50;;;14.90;;
64401;SDS011;50724;42.376;23.768;2023-02-12T16:07:58;35.88;;;15.27;;
64401;SDS011;50724;42.376;23.768;2023-02-12T16:10:59;24.63;;;12.05;;
64401;SDS011;50724;42.376;23.768;2023-02-12T16:14:26;22.08;;;10.90;;
64401;SDS011;50724;42.376;23.768;2023-02-12T16:17:35;28.08;;;11.15;;
64401;SDS011;50724;42.376;23.768;2023-02-12T16:20:37;32.53;;;14.40;;
64401;SDS011;50724;42.376;23.768;2023-02-12T16:23:37;30.02;;;12.70;;
64401;SDS011;50724;42.376;23.768;2023-02-12T16:26:49;27.08;;;10.88;;
64401;SDS011;50724;42.376;23.768;2023-02-12T16:29:51;29.30;;;12.57;;
64401;SDS011;50724;42.376;23.768;2023-02-12T16:32:54;28.27;;;11.18;;
64401;SDS011;50724;42.376;23.768;2023-02-12T16:35:59;24.27;;;11.63;;
64401;SDS011;50724;42.376;23.768;2023-02-12T16:39:04;28.98;;;12.27;;
64401;SDS011;50724;42.376;23.768;2023-02-12T16:42:14;26.77;;;10.80;;
64401;SDS011;50724;42.376;23.768;2023-02-12T16:48:27;28.95;;;11.70;;
64401;SDS011;50724;42.376;23.768;2023-02-12T16:54:33;29.90;;;11.20;;
64401;SDS011;50724;42.376;23.768;2023-02-12T16:57:34;29.52;;;12.25;;
64401;SDS011;50724;42.376;23.768;2023-02-12T17:00:34;23.40;;;11.13;;
64401;SDS011;50724;42.376;23.768;2023-02-12T17:03:35;22.77;;;8.98;;
64401;SDS011;50724;42.376;23.768;2023-02-12T17:06:36;24.10;;;10.25;;
64401;SDS011;50724;42.376;23.768;2023-02-12T17:09:36;27.83;;;12.37;;
64401;SDS011;50724;42.376;23.768;2023-02-12T17:12:43;29.05;;;12.07;;
64401;SDS011;50724;42.376;23.768;2023-02-12T17:15:57;31.13;;;12.52;;
64401;SDS011;50724;42.376;23.768;2023-02-12T17:19:02;30.38;;;12.20;;
64401;SDS011;50724;42.376;23.768;2023-02-12T17:22:02;28.43;;;13.47;;
64401;SDS011;50724;42.376;23.768;2023-02-12T17:25:05;31.60;;;13.98;;
64401;SDS011;50724;42.376;23.768;2023-02-12T17:28:05;28.42;;;13.50;;
64401;SDS011;50724;42.376;23.768;2023-02-12T17:31:08;32.63;;;14.32;;
64401;SDS011;50724;42.376;23.768;2023-02-12T17:34:08;30.42;;;13.70;;
64401;SDS011;50724;42.376;23.768;2023-02-12T17:37:09;24.38;;;11.68;;
64401;SDS011;50724;42.376;23.768;2023-02-12T17:40:10;29.02;;;13.10;;
64401;SDS011;50724;42.376;23.768;2023-02-12T17:43:11;30.92;;;13.00;;
64401;SDS011;50724;42.376;23.768;2023-02-12T17:46:13;34.45;;;12.70;;
64401;SDS011;50724;42.376;23.768;2023-02-12T17:49:17;29.23;;;12.80;;
64401;SDS011;50724;42.376;23.768;2023-02-12T17:52:17;27.33;;;11.98;;
64401;SDS011;50724;42.376;23.768;2023-02-12T17:55:18;24.92;;;10.80;;
64401;SDS011;50724;42.376;23.768;2023-02-12T17:58:18;29.67;;;12.25;;
64401;SDS011;50724;42.376;23.768;2023-02-12T18:01:20;25.07;;;10.40;;
64401;SDS011;50724;42.376;23.768;2023-02-12T18:04:21;27.63;;;10.35;;
64401;SDS011;50724;42.376;23.768;2023-02-12T18:07:22;24.17;;;10.48;;
64401;SDS011;50724;42.376;23.768;2023-02-12T18:10:22;29.80;;;11.37;;
64401;SDS011;50724;42.376;23.768;2023-02-12T18:13:23;21.55;;;9.82;;
64401;SDS011;50724;42.376;23.768;2023-02-12T18:16:24;25.52;;;11.27;;
64401;SDS011;50724;42.376;23.768;2023-02-12T18:19:27;25.80;;;10.73;;
64401;SDS011;50724;42.376;23.768;2023-02-12T18:22:28;23.10;;;10.48;;
64401;SDS011;50724;42.376;23.768;2023-02-12T18:25:28;26.20;;;10.38;;
64401;SDS011;50724;42.376;23.768;2023-02-12T18:28:29;25.42;;;10.85;;
64401;SDS011;50724;42.376;23.768;2023-02-12T18:31:29;27.27;;;11.23;;
64401;SDS011;50724;42.376;23.768;2023-02-12T18:34:29;30.58;;;11.90;;
64401;SDS011;50724;42.376;23.768;2023-02-12T18:37:30;22.35;;;10.82;;
64401;SDS011;50724;42.376;23.768;2023-02-12T18:40:31;24.58;;;8.40;;
64401;SDS011;50724;42.376;23.768;2023-02-12T18:43:31;26.63;;;11.35;;
64401;SDS011;50724;42.376;23.768;2023-02-12T18:46:34;29.23;;;11.90;;
64401;SDS011;50724;42.376;23.768;2023-02-12T18:49:35;24.20;;;10.68;;
64401;SDS011;50724;42.376;23.768;2023-02-12T18:52:35;30.73;;;11.52;;
64401;SDS011;50724;42.376;23.768;2023-02-12T19:35:04;24.95;;;10.57;;
64401;SDS011;50724;42.376;23.768;2023-02-12T19:38:05;26.27;;;10.80;;
64401;SDS011;50724;42.376;23.768;2023-02-12T19:41:09;28.17;;;11.53;;
64401;SDS011;50724;42.376;23.768;2023-02-12T19:44:12;25.42;;;11.23;;
64401;SDS011;50724;42.376;23.768;2023-02-12T19:47:17;28.05;;;11.10;;
64401;SDS011;50724;42.376;23.768;2023-02-12T19:50:18;29.50;;;12.68;;
64401;SDS011;50724;42.376;23.768;2023-02-12T19:53:18;28.27;;;11.38;;
64401;SDS011;50724;42.376;23.768;2023-02-12T19:56:19;24.90;;;11.55;;
64401;SDS011;50724;42.376;23.768;2023-02-12T19:59:20;28.70;;;11.40;;
64401;SDS011;50724;42.376;23.768;2023-02-12T20:02:22;26.85;;;10.18;;
64401;SDS011;50724;42.376;23.768;2023-02-12T20:05:22;24.10;;;10.98;;
64401;SDS011;50724;42.376;23.768;2023-02-12T20:08:22;28.88;;;11.57;;
64401;SDS011;50724;42.376;23.768;2023-02-12T20:11:24;26.40;;;10.80;;
64401;SDS011;50724;42.376;23.768;2023-02-12T20:14:27;23.35;;;9.10;;
64401;SDS011;50724;42.376;23.768;2023-02-12T20:17:28;28.27;;;11.50;;
64401;SDS011;50724;42.376;23.768;2023-02-12T20:20:28;22.17;;;9.70;;
64401;SDS011;50724;42.376;23.768;2023-02-12T20:23:29;25.95;;;10.10;;
64401;SDS011;50724;42.376;23.768;2023-02-12T20:26:30;22.17;;;9.70;;
64401;SDS011;50724;42.376;23.768;2023-02-12T20:29:32;27.02;;;9.82;;
64401;SDS011;50724;42.376;23.768;2023-02-12T20:32:33;25.48;;;10.32;;
64401;SDS011;50724;42.376;23.768;2023-02-12T20:35:33;28.38;;;13.05;;
64401;SDS011;50724;42.376;23.768;2023-02-12T20:38:36;24.45;;;10.95;;
64401;SDS011;50724;42.376;23.768;2023-02-12T20:41:38;29.55;;;11.25;;
64401;SDS011;50724;42.376;23.768;2023-02-12T20:44:39;29.35;;;11.60;;
64401;SDS011;50724;42.376;23.768;2023-02-12T20:47:40;32.70;;;13.57;;
64401;SDS011;50724;42.376;23.768;2023-02-12T20:50:40;34.23;;;13.70;;
64401;SDS011;50724;42.376;23.768;2023-02-12T20:53:41;30.60;;;13.47;;
64401;SDS011;50724;42.376;23.768;2023-02-12T20:56:42;30.08;;;11.90;;
64401;SDS011;50724;42.376;23.768;2023-02-12T20:59:42;33.80;;;11.77;;
64401;SDS011;50724;42.376;23.768;2023-02-12T21:02:43;32.42;;;12.52;;
64401;SDS011;50724;42.376;23.768;2023-02-12T21:05:43;30.08;;;11.50;;
64401;SDS011;50724;42.376;23.768;2023-02-12T21:08:44;28.00;;;10.80;;
64401;SDS011;50724;42.376;23.768;2023-02-12T21:11:45;30.67;;;11.23;;
64401;SDS011;50724;42.376;23.768;2023-02-12T21:14:46;26.45;;;10.93;;
64401;SDS011;50724;42.376;23.768;2023-02-12T21:17:46;26.13;;;10.03;;
64401;SDS011;50724;42.376;23.768;2023-02-12T21:20:46;26.90;;;8.95;;
64401;SDS011;50724;42.376;23.768;2023-02-12T21:23:47;25.10;;;9.50;;
64401;SDS011;50724;42.376;23.768;2023-02-12T21:26:48;28.33;;;10.50;;
64401;SDS011;50724;42.376;23.768;2023-02-12T21:29:49;25.17;;;10.73;;
64401;SDS011;50724;42.376;23.768;2023-02-12T21:32:49;22.37;;;10.03;;
64401;SDS011;50724;42.376;23.768;2023-02-12T21:35:50;25.50;;;9.20;;
64401;SDS011;50724;42.376;23.768;2023-02-12T21:38:51;23.35;;;9.95;;
64401;SDS011;50724;42.376;23.768;2023-02-12T21:41:53;27.35;;;9.73;;
64401;SDS011;50724;42.376;23.768;2023-02-12T21:44:59;24.02;;;9.38;;
64401;SDS011;50724;42.376;23.768;2023-02-12T21:47:59;22.50;;;9.10;;
64401;SDS011;50724;42.376;23.768;2023-02-12T21:50:59;30.60;;;10.60;;